createdAt,value
2024-03-05T00:01:40.504Z,27.27
2024-03-05T00:04:08.158Z,27.55
2024-03-05T00:06:35.332Z,19.50
2024-03-05T00:09:02.455Z,25.95
2024-03-05T00:11:29.612Z,23.80
2024-03-05T00:13:56.997Z,28.05
2024-03-05T00:16:24.668Z,34.65
2024-03-05T00:18:51.942Z,25.73
2024-03-05T00:21:19.168Z,27.40
2024-03-05T00:23:46.321Z,27.67
2024-03-05T00:26:19.404Z,33.75
2024-03-05T00:28:47.387Z,38.60
2024-03-05T00:31:14.776Z,40.35
2024-03-05T00:33:41.970Z,38.40
2024-03-05T00:36:09.428Z,35.50
2024-03-05T00:38:36.664Z,41.70
2024-03-05T00:41:04.247Z,36.03
2024-03-05T00:43:31.655Z,37.42
2024-03-05T00:45:58.758Z,34.22
2024-03-05T00:48:26.041Z,34.10
2024-03-05T00:50:53.297Z,36.25
2024-03-05T00:53:21.754Z,27.80
2024-03-05T00:55:49.029Z,32.67
2024-03-05T00:58:16.367Z,28.88
2024-03-05T01:00:44.510Z,28.05
2024-03-05T01:03:14.320Z,26.67
2024-03-05T01:05:41.473Z,28.08
2024-03-05T01:08:08.895Z,29.83
2024-03-05T01:10:36.000Z,30.35
2024-03-05T01:13:03.502Z,24.42
2024-03-05T01:15:30.637Z,23.33
2024-03-05T01:17:58.696Z,24.30
2024-03-05T01:20:25.966Z,28.83
2024-03-05T01:22:53.208Z,26.52
2024-03-05T01:25:20.611Z,25.98
2024-03-05T01:27:47.756Z,28.10
2024-03-05T01:30:15.693Z,31.20
2024-03-05T01:32:45.097Z,26.33
2024-03-05T01:35:12.754Z,27.65
2024-03-05T01:37:41.141Z,26.27
2024-03-05T01:40:10.348Z,27.42
2024-03-05T01:42:37.546Z,25.10
2024-03-05T01:45:05.152Z,25.95
2024-03-05T01:47:33.802Z,24.42
2024-03-05T01:50:05.154Z,26.05
2024-03-05T01:52:33.035Z,24.20
2024-03-05T01:55:07.774Z,24.60
2024-03-05T01:57:35.833Z,31.48
2024-03-05T02:00:04.312Z,23.23
2024-03-05T02:02:32.613Z,26.48
2024-03-05T02:05:00.530Z,26.90
2024-03-05T02:07:28.652Z,28.23
2024-03-05T02:09:56.997Z,26.33
2024-03-05T02:12:24.982Z,29.35
2024-03-05T02:14:53.864Z,30.00
2024-03-05T02:17:21.612Z,26.55
2024-03-05T02:19:52.190Z,27.83
2024-03-05T02:22:22.048Z,31.73
2024-03-05T02:24:49.197Z,31.00
2024-03-05T02:27:23.818Z,25.45
2024-03-05T02:29:54.894Z,30.60
2024-03-05T02:32:22.509Z,29.05
2024-03-05T02:34:50.564Z,28.77
2024-03-05T02:37:17.835Z,30.98
2024-03-05T02:39:45.108Z,30.30
2024-03-05T02:42:12.307Z,29.10
2024-03-05T02:44:39.471Z,32.45
2024-03-05T02:47:08.335Z,27.45
2024-03-05T02:49:35.596Z,26.55
2024-03-05T02:52:02.791Z,27.60
2024-03-05T02:54:29.996Z,27.77
2024-03-05T02:56:57.054Z,29.42
2024-03-05T02:59:25.326Z,29.88
2024-03-05T03:01:53.056Z,27.85
2024-03-05T03:04:20.287Z,29.95
2024-03-05T03:06:47.579Z,29.00
2024-03-05T03:09:14.814Z,28.88
2024-03-05T03:11:43.055Z,25.52
2024-03-05T03:14:10.642Z,25.17
2024-03-05T03:16:37.921Z,26.88
2024-03-05T03:19:06.012Z,27.85
2024-03-05T03:21:33.453Z,26.67
2024-03-05T03:24:00.715Z,28.42
2024-03-05T03:26:28.253Z,25.40
2024-03-05T03:28:56.095Z,27.45
2024-03-05T03:31:24.252Z,25.50
2024-03-05T03:33:51.393Z,26.80
2024-03-05T03:36:28.385Z,27.25
2024-03-05T03:38:55.450Z,24.50
2024-03-05T03:41:22.667Z,24.42
2024-03-05T03:43:50.128Z,24.45
2024-03-05T03:46:17.380Z,25.42
2024-03-05T03:48:44.523Z,28.02
2024-03-05T03:51:11.799Z,25.25
2024-03-05T03:53:38.984Z,27.40
2024-03-05T03:56:06.789Z,27.35
2024-03-05T03:58:34.308Z,28.75
2024-03-05T04:01:01.707Z,26.52
2024-03-05T04:03:29.693Z,29.67
2024-03-05T04:05:57.390Z,26.13
2024-03-05T04:08:24.628Z,25.77
2024-03-05T04:10:51.953Z,26.25
2024-03-05T04:13:19.287Z,26.85
2024-03-05T04:15:46.676Z,24.33
2024-03-05T04:18:14.273Z,25.95
2024-03-05T04:20:42.046Z,27.05
2024-03-05T04:23:11.674Z,30.08
2024-03-05T04:25:41.638Z,28.83
2024-03-05T04:28:13.708Z,25.17
2024-03-05T04:30:43.440Z,26.58
2024-03-05T04:33:12.323Z,25.70
2024-03-05T04:35:39.671Z,25.88
2024-03-05T04:38:06.797Z,22.77
2024-03-05T04:40:38.912Z,24.65
2024-03-05T04:43:06.940Z,27.43
2024-03-05T04:45:35.626Z,27.00
2024-03-05T04:48:03.637Z,26.83
2024-03-05T04:50:31.463Z,26.08
2024-03-05T04:52:58.981Z,24.83
2024-03-05T04:55:26.613Z,28.52
2024-03-05T04:57:54.017Z,27.23
2024-03-05T05:00:21.935Z,26.52
2024-03-05T05:02:53.965Z,25.58
2024-03-05T05:05:22.921Z,26.40
2024-03-05T05:07:50.403Z,29.52
2024-03-05T05:10:17.956Z,28.40
2024-03-05T05:12:46.195Z,24.65
2024-03-05T05:15:13.887Z,29.20
2024-03-05T05:17:41.872Z,26.92
2024-03-05T05:20:10.516Z,28.30
2024-03-05T05:22:43.326Z,24.85
2024-03-05T05:25:10.686Z,24.20
2024-03-05T05:27:38.209Z,25.67
2024-03-05T05:30:12.996Z,27.92
2024-03-05T05:32:41.647Z,22.95
2024-03-05T05:35:10.113Z,27.75
2024-03-05T05:37:38.596Z,28.42
2024-03-05T05:40:12.086Z,28.48
2024-03-05T05:42:42.241Z,24.65
2024-03-05T05:45:13.646Z,27.08
2024-03-05T05:47:50.393Z,27.88
2024-03-05T05:50:19.143Z,25.98
2024-03-05T05:52:52.046Z,30.83
2024-03-05T05:57:50.649Z,29.30
2024-03-05T06:00:40.871Z,28.88
2024-03-05T06:03:09.636Z,27.50
2024-03-05T06:05:39.626Z,27.55
2024-03-05T06:08:15.990Z,27.88
2024-03-05T06:10:43.612Z,31.42
2024-03-05T06:13:12.307Z,34.70
2024-03-05T06:15:39.960Z,31.65
2024-03-05T06:18:07.641Z,28.05
2024-03-05T06:20:35.014Z,32.17
2024-03-05T06:23:02.584Z,33.40
2024-03-05T06:25:30.092Z,31.38
2024-03-05T06:27:57.736Z,31.85
2024-03-05T06:30:26.397Z,33.88
2024-03-05T06:32:54.132Z,33.65
2024-03-05T06:35:25.451Z,29.00
2024-03-05T06:37:54.905Z,31.70
2024-03-05T06:40:25.290Z,33.58
2024-03-05T06:42:53.913Z,34.40
2024-03-05T06:45:29.200Z,34.80
2024-03-05T06:48:10.524Z,32.88
2024-03-05T06:50:46.126Z,34.25
2024-03-05T06:53:32.115Z,31.13
2024-03-05T06:56:18.880Z,31.92
2024-03-05T06:58:49.145Z,35.42
2024-03-05T07:01:17.309Z,33.05
2024-03-05T07:03:44.625Z,32.08
2024-03-05T07:06:14.489Z,38.03
2024-03-05T07:08:44.521Z,33.70
2024-03-05T07:11:13.925Z,35.80
2024-03-05T07:13:45.373Z,38.35
2024-03-05T07:16:17.938Z,41.55
2024-03-05T07:18:56.230Z,33.80
2024-03-05T07:21:25.935Z,37.80
2024-03-05T07:23:55.322Z,32.25
2024-03-05T07:26:24.751Z,33.08
2024-03-05T07:28:53.209Z,37.35
2024-03-05T07:31:20.731Z,34.20
2024-03-05T07:33:52.817Z,36.55
2024-03-05T07:36:22.161Z,38.08
2024-03-05T07:38:49.449Z,39.00
2024-03-05T07:41:26.587Z,39.42
2024-03-05T07:44:02.085Z,38.17
2024-03-05T07:46:31.241Z,39.58
2024-03-05T07:48:58.911Z,36.72
2024-03-05T07:51:29.189Z,32.10
2024-03-05T07:54:01.827Z,35.83
2024-03-05T07:56:29.229Z,34.05
2024-03-05T07:58:57.321Z,34.38
2024-03-05T08:01:25.516Z,36.20
2024-03-05T08:03:53.247Z,34.67
2024-03-05T08:06:20.361Z,34.50
2024-03-05T08:08:47.784Z,32.85
2024-03-05T08:11:15.028Z,36.90
2024-03-05T08:13:42.182Z,31.92
2024-03-05T08:16:11.129Z,39.05
2024-03-05T08:18:38.298Z,29.13
2024-03-05T08:21:05.638Z,37.72
2024-03-05T08:23:32.810Z,32.40
2024-03-05T08:26:00.178Z,40.45
2024-03-05T08:28:27.393Z,35.72
2024-03-05T08:30:55.340Z,33.70
2024-03-05T08:33:25.200Z,31.85
2024-03-05T08:35:53.193Z,29.00
2024-03-05T08:38:20.492Z,30.65
2024-03-05T08:40:50.117Z,35.50
2024-03-05T08:43:17.410Z,31.88
2024-03-05T08:45:44.638Z,36.50
2024-03-05T08:48:12.176Z,32.38
2024-03-05T08:50:41.168Z,34.65
2024-03-05T08:53:09.636Z,33.70
2024-03-05T08:55:37.290Z,31.67
2024-03-05T08:58:05.224Z,28.55
2024-03-05T09:00:42.164Z,33.47
2024-03-05T09:03:13.415Z,28.08
2024-03-05T09:05:44.317Z,28.05
2024-03-05T09:08:14.258Z,31.25
2024-03-05T09:10:42.125Z,31.48
2024-03-05T09:13:09.514Z,32.53
2024-03-05T09:15:41.412Z,29.77
2024-03-05T09:18:14.072Z,27.42
2024-03-05T09:20:43.388Z,32.70
2024-03-05T09:23:11.203Z,38.58
2024-03-05T09:25:40.094Z,34.58
2024-03-05T09:28:07.237Z,44.00
2024-03-05T09:30:35.289Z,30.10
2024-03-05T09:33:03.658Z,37.03
2024-03-05T09:35:31.629Z,39.03
2024-03-05T09:37:58.904Z,38.42
2024-03-05T09:40:26.229Z,43.92
2024-03-05T09:42:59.623Z,26.40
2024-03-05T09:45:31.737Z,30.85
2024-03-05T09:48:00.457Z,25.50
2024-03-05T09:50:28.136Z,27.13
2024-03-05T09:52:55.653Z,30.40
2024-03-05T09:55:23.037Z,33.45
2024-03-05T09:57:50.596Z,35.08
2024-03-05T10:00:21.915Z,28.60
2024-03-05T10:02:53.405Z,30.70
2024-03-05T10:05:21.465Z,29.83
2024-03-05T10:07:50.170Z,29.65
2024-03-05T10:10:22.974Z,27.98
2024-03-05T10:12:53.902Z,30.90
2024-03-05T10:15:27.094Z,30.65
2024-03-05T10:17:56.753Z,31.38
2024-03-05T10:20:35.520Z,31.27
2024-03-05T10:23:09.403Z,30.73
2024-03-05T10:25:37.852Z,34.20
2024-03-05T10:28:07.543Z,32.60
2024-03-05T10:30:37.249Z,34.22
2024-03-05T10:33:09.146Z,36.05
2024-03-05T10:35:39.685Z,31.20
2024-03-05T10:38:15.641Z,41.17
2024-03-05T10:40:46.275Z,31.92
2024-03-05T10:43:19.890Z,39.90
2024-03-05T10:45:49.167Z,27.65
2024-03-05T10:48:20.116Z,27.40
2024-03-05T10:50:51.383Z,31.23
2024-03-05T10:53:20.185Z,30.75
2024-03-05T10:55:52.824Z,37.00
2024-03-05T11:01:10.492Z,71.45
2024-03-05T11:03:42.027Z,42.97
2024-03-05T11:06:10.890Z,28.30
2024-03-05T11:08:38.784Z,43.17
2024-03-05T11:11:19.054Z,29.73
2024-03-05T11:13:50.356Z,30.23
2024-03-05T11:16:18.310Z,28.20
2024-03-05T11:18:50.314Z,26.90
2024-03-05T11:21:18.877Z,28.75
2024-03-05T11:23:59.368Z,30.40
2024-03-05T11:26:30.245Z,44.03
2024-03-05T11:29:21.497Z,26.92
2024-03-05T11:31:49.076Z,32.63
2024-03-05T11:34:19.406Z,26.17
2024-03-05T11:37:05.913Z,31.20
2024-03-05T11:39:33.580Z,31.25
2024-03-05T11:42:01.191Z,30.50
2024-03-05T11:44:42.351Z,29.30
2024-03-05T11:47:09.904Z,29.23
2024-03-05T11:49:38.729Z,32.45
2024-03-05T11:52:07.345Z,29.45
2024-03-05T11:54:37.182Z,30.63
2024-03-05T11:57:05.151Z,30.40
2024-03-05T11:59:37.686Z,33.47
2024-03-05T12:02:12.233Z,27.40
2024-03-05T12:04:40.616Z,29.50
2024-03-05T12:07:11.096Z,28.48
2024-03-05T12:09:38.642Z,24.25
2024-03-05T12:12:12.485Z,27.50
2024-03-05T12:14:54.681Z,27.95
2024-03-05T12:17:25.161Z,25.27
2024-03-05T12:20:10.598Z,28.10
2024-03-05T12:22:41.406Z,28.70
2024-03-05T12:25:09.778Z,26.27
2024-03-05T12:27:39.666Z,24.35
2024-03-05T12:30:12.071Z,24.05
2024-03-05T12:32:43.574Z,23.15
2024-03-05T12:35:14.940Z,24.80
2024-03-05T12:37:42.860Z,26.50
2024-03-05T12:40:18.494Z,21.88
2024-03-05T12:42:50.527Z,28.55
2024-03-05T12:45:22.728Z,29.40
2024-03-05T12:48:03.356Z,26.63
2024-03-05T12:50:31.967Z,24.73
2024-03-05T12:53:03.789Z,26.63
2024-03-05T12:55:34.787Z,21.00
2024-03-05T12:58:19.685Z,21.15
2024-03-05T13:00:46.898Z,21.05
2024-03-05T13:03:15.212Z,22.48
2024-03-05T13:05:43.750Z,20.35
2024-03-05T13:08:11.181Z,27.00
2024-03-05T13:10:39.260Z,23.33
2024-03-05T13:13:06.402Z,23.60
2024-03-05T13:15:34.198Z,24.50
2024-03-05T13:18:01.514Z,26.17
2024-03-05T13:20:29.551Z,24.52
2024-03-05T13:22:56.914Z,23.30
2024-03-05T13:25:29.884Z,23.05
2024-03-05T13:30:28.131Z,22.90
2024-03-05T13:33:02.566Z,22.77
2024-03-05T13:35:31.851Z,24.23
2024-03-05T13:37:59.513Z,23.67
2024-03-05T13:40:26.833Z,30.40
2024-03-05T13:42:53.910Z,24.45
2024-03-05T13:45:21.155Z,32.38
2024-03-05T13:47:48.500Z,26.10
2024-03-05T13:50:18.543Z,20.75
2024-03-05T13:52:49.928Z,23.92
2024-03-05T13:55:17.858Z,22.00
2024-03-05T13:57:45.813Z,20.73
2024-03-05T14:00:21.262Z,20.33
2024-03-05T14:02:49.726Z,22.20
2024-03-05T14:05:17.333Z,23.45
2024-03-05T14:07:45.716Z,26.92
2024-03-05T14:10:16.702Z,23.38
2024-03-05T14:12:44.023Z,20.80
2024-03-05T14:15:21.786Z,21.27
2024-03-05T14:17:50.415Z,20.98
2024-03-05T14:20:24.994Z,18.45
2024-03-05T14:22:52.660Z,19.63
2024-03-05T14:25:19.872Z,22.52
2024-03-05T14:27:49.305Z,19.67
2024-03-05T14:30:19.737Z,20.05
2024-03-05T14:32:47.575Z,18.17
2024-03-05T14:35:15.128Z,18.25
2024-03-05T14:37:43.729Z,18.17
2024-03-05T14:40:12.019Z,19.23
2024-03-05T14:42:39.646Z,19.05
2024-03-05T14:45:08.893Z,20.80
2024-03-05T14:47:35.982Z,17.88
2024-03-05T14:50:06.030Z,17.50
2024-03-05T14:52:33.219Z,21.17
2024-03-05T14:55:01.835Z,21.50
2024-03-05T14:57:29.668Z,23.70
2024-03-05T14:59:56.964Z,20.92
2024-03-05T15:02:24.264Z,20.90
2024-03-05T15:04:51.763Z,20.33
2024-03-05T15:07:19.069Z,21.20
2024-03-05T15:09:46.868Z,26.65
2024-03-05T15:12:14.034Z,32.95
2024-03-05T15:14:43.495Z,32.33
2024-03-05T15:17:11.923Z,36.25
2024-03-05T15:19:39.327Z,50.25
2024-03-05T15:22:09.776Z,28.02
2024-03-05T15:24:37.655Z,24.80
2024-03-05T15:27:06.272Z,25.48
2024-03-05T15:29:34.097Z,27.45
2024-03-05T15:32:02.836Z,23.05
2024-03-05T15:34:30.313Z,24.08
2024-03-05T15:36:57.892Z,23.88
2024-03-05T15:39:25.262Z,25.23
2024-03-05T15:41:52.659Z,30.60
2024-03-05T15:44:19.871Z,32.17
2024-03-05T15:46:50.055Z,27.33
2024-03-05T15:49:17.348Z,27.20
2024-03-05T15:51:45.515Z,32.90
2024-03-05T15:54:14.757Z,30.00
2024-03-05T15:56:59.230Z,31.33
2024-03-05T16:00:02.295Z,41.30
2024-03-05T16:02:29.678Z,43.08
2024-03-05T16:05:13.978Z,36.50
2024-03-05T16:07:48.635Z,45.17
2024-03-05T16:10:16.025Z,43.45
2024-03-05T16:12:44.717Z,41.03
2024-03-05T16:15:17.027Z,33.55
2024-03-05T16:17:45.046Z,35.40
2024-03-05T16:20:19.854Z,36.88
2024-03-05T16:22:54.001Z,36.33
2024-03-05T16:25:26.347Z,39.17
2024-03-05T16:27:56.863Z,38.17
2024-03-05T16:30:28.587Z,36.75
2024-03-05T16:32:57.092Z,39.00
2024-03-05T16:35:28.749Z,38.28
2024-03-05T16:37:56.446Z,38.92
2024-03-05T16:40:25.414Z,43.05
2024-03-05T16:43:01.416Z,38.58
2024-03-05T16:45:29.129Z,42.65
2024-03-05T16:48:01.994Z,41.10
2024-03-05T16:52:59.803Z,39.72
2024-03-05T16:55:28.713Z,42.38
2024-03-05T16:58:00.764Z,43.55
2024-03-05T17:00:34.600Z,49.10
2024-03-05T17:03:09.001Z,42.40
2024-03-05T17:05:42.907Z,46.35
2024-03-05T17:08:16.062Z,41.85
2024-03-05T17:10:45.636Z,44.58
2024-03-05T17:13:20.060Z,46.25
2024-03-05T17:15:57.737Z,56.15
2024-03-05T17:18:25.613Z,44.60
2024-03-05T17:20:54.591Z,45.35
2024-03-05T17:23:25.933Z,49.97
2024-03-05T17:25:57.628Z,47.83
2024-03-05T17:28:27.903Z,50.92
2024-03-05T17:30:57.303Z,44.72
2024-03-05T17:33:25.070Z,48.28
2024-03-05T17:35:56.217Z,49.70
2024-03-05T17:38:25.362Z,54.70
2024-03-05T17:40:53.827Z,49.80
2024-03-05T17:43:21.088Z,46.53
2024-03-05T17:45:49.328Z,51.28
2024-03-05T17:48:16.830Z,49.90
2024-03-05T17:50:46.979Z,54.50
2024-03-05T17:53:14.449Z,48.70
2024-03-05T17:55:41.780Z,55.33
2024-03-05T17:58:09.634Z,57.38
2024-03-05T18:00:46.627Z,53.78
2024-03-05T18:03:23.873Z,52.78
2024-03-05T18:05:51.591Z,54.85
2024-03-05T18:08:19.180Z,60.22
2024-03-05T18:10:48.137Z,52.38
2024-03-05T18:13:19.591Z,55.85
2024-03-05T18:15:49.539Z,54.92
2024-03-05T18:18:19.561Z,52.22
2024-03-05T18:20:47.532Z,51.72
2024-03-05T18:23:14.786Z,54.35
2024-03-05T18:25:46.090Z,48.60
2024-03-05T18:28:26.435Z,54.47
2024-03-05T18:30:56.224Z,52.50
2024-03-05T18:33:23.760Z,54.72
2024-03-05T18:35:53.320Z,51.53
2024-03-05T18:38:28.455Z,54.67
2024-03-05T18:41:01.652Z,58.97
2024-03-05T18:43:31.933Z,55.20
2024-03-05T18:46:02.604Z,53.47
2024-03-05T18:48:30.873Z,59.47
2024-03-05T18:51:00.649Z,61.85
2024-03-05T18:53:39.372Z,60.22
2024-03-05T18:58:47.647Z,61.45
2024-03-05T19:01:17.283Z,62.75
2024-03-05T19:03:45.270Z,61.83
2024-03-05T19:06:12.614Z,57.03
2024-03-05T19:08:40.014Z,76.40
2024-03-05T19:11:11.062Z,73.50
2024-03-05T19:13:39.344Z,72.90
2024-03-05T19:16:07.717Z,70.20
2024-03-05T19:18:35.246Z,73.53
2024-03-05T19:21:03.223Z,79.03
2024-03-05T19:23:30.435Z,92.40
2024-03-05T19:25:57.616Z,87.50
2024-03-05T19:28:26.550Z,88.22
2024-03-05T19:30:54.201Z,93.13
2024-03-05T19:33:21.505Z,89.70
2024-03-05T19:35:50.751Z,81.95
2024-03-05T19:38:17.940Z,82.53
2024-03-05T19:40:46.602Z,82.65
2024-03-05T19:43:13.758Z,86.07
2024-03-05T19:45:41.934Z,87.15
2024-03-05T19:48:10.661Z,82.97
2024-03-05T19:50:38.159Z,83.82
2024-03-05T19:53:06.056Z,83.07
2024-03-05T19:55:34.929Z,83.28
2024-03-05T19:58:02.207Z,85.18
2024-03-05T20:00:29.733Z,98.93
2024-03-05T20:02:57.053Z,96.13
2024-03-05T20:05:24.623Z,91.90
2024-03-05T20:07:55.175Z,81.38
2024-03-05T20:10:22.868Z,91.57
2024-03-05T20:12:50.134Z,101.47
2024-03-05T20:15:17.624Z,97.47
2024-03-05T20:17:45.467Z,98.57
2024-03-05T20:20:19.623Z,96.82
2024-03-05T20:22:49.238Z,101.57
2024-03-05T20:25:22.809Z,100.55
2024-03-05T20:27:52.035Z,100.10
2024-03-05T20:30:19.969Z,91.20
2024-03-05T20:32:47.435Z,94.93
2024-03-05T20:35:18.270Z,88.50
2024-03-05T20:37:51.426Z,89.95
2024-03-05T20:40:23.943Z,82.68
2024-03-05T20:42:51.564Z,86.68
2024-03-05T20:45:21.798Z,93.18
2024-03-05T20:47:49.652Z,79.32
2024-03-05T20:50:17.087Z,89.95
2024-03-05T20:52:44.638Z,90.30
2024-03-05T20:55:12.019Z,84.90
2024-03-05T20:57:40.434Z,81.93
2024-03-05T21:00:13.573Z,83.43
2024-03-05T21:02:42.482Z,74.15
2024-03-05T21:05:11.410Z,81.50
2024-03-05T21:07:39.890Z,79.15
2024-03-05T21:10:11.214Z,81.88
2024-03-05T21:12:39.789Z,78.55
2024-03-05T21:15:12.487Z,85.57
2024-03-05T21:17:41.749Z,78.10
2024-03-05T21:20:13.479Z,79.25
2024-03-05T21:22:43.493Z,85.72
2024-03-05T21:25:11.965Z,108.07
2024-03-05T21:27:41.220Z,97.38
2024-03-05T21:30:13.060Z,106.85
2024-03-05T21:32:43.481Z,122.65
2024-03-05T21:35:11.348Z,93.38
2024-03-05T21:37:42.646Z,95.28
2024-03-05T21:40:14.801Z,90.43
2024-03-05T21:42:45.328Z,84.25
2024-03-05T21:45:16.027Z,90.88
2024-03-05T21:47:47.369Z,86.32
2024-03-05T21:50:14.895Z,80.35
2024-03-05T21:52:46.439Z,77.78
2024-03-05T21:55:14.028Z,78.50
2024-03-05T21:57:41.587Z,89.93
2024-03-05T22:00:12.458Z,85.38
2024-03-05T22:02:44.726Z,85.00
2024-03-05T22:05:13.867Z,94.80
2024-03-05T22:07:41.598Z,87.50
2024-03-05T22:10:10.054Z,93.20
2024-03-05T22:12:41.983Z,86.07
2024-03-05T22:15:11.253Z,111.78
2024-03-05T22:17:39.574Z,102.03
2024-03-05T22:20:09.442Z,97.70
2024-03-05T22:22:37.351Z,97.03
2024-03-05T22:25:07.856Z,92.82
2024-03-05T22:27:35.672Z,95.88
2024-03-05T22:30:04.270Z,101.82
2024-03-05T22:32:31.643Z,89.65
2024-03-05T22:34:59.510Z,99.28
2024-03-05T22:37:27.022Z,104.30
2024-03-05T22:39:54.402Z,92.72
2024-03-05T22:42:21.715Z,95.00
2024-03-05T22:44:49.002Z,94.43
2024-03-05T22:47:16.373Z,97.57
2024-03-05T22:49:46.437Z,89.18
2024-03-05T22:52:15.072Z,91.35
2024-03-05T22:54:42.478Z,85.70
2024-03-05T22:57:09.954Z,93.13
2024-03-05T22:59:37.355Z,89.63
2024-03-05T23:02:05.954Z,96.32
2024-03-05T23:04:33.886Z,91.30
2024-03-05T23:07:01.161Z,93.78
2024-03-05T23:09:28.453Z,109.40
2024-03-05T23:11:55.856Z,102.43
2024-03-05T23:14:23.219Z,95.15
2024-03-05T23:16:51.827Z,98.38
2024-03-05T23:19:19.146Z,89.18
2024-03-05T23:21:46.377Z,91.65
2024-03-05T23:24:13.561Z,90.72
2024-03-05T23:26:40.647Z,96.68
2024-03-05T23:29:07.940Z,91.15
2024-03-05T23:31:35.114Z,94.88
2024-03-05T23:34:02.412Z,90.93
2024-03-05T23:36:29.712Z,93.70
2024-03-05T23:38:56.893Z,87.05
2024-03-05T23:41:31.664Z,87.72
2024-03-05T23:43:59.972Z,91.80
2024-03-05T23:46:27.232Z,93.95
2024-03-05T23:48:54.521Z,97.45
2024-03-05T23:51:21.671Z,101.03
2024-03-05T23:53:48.957Z,96.68
2024-03-05T23:56:16.232Z,105.82
2024-03-05T23:58:43.699Z,107.97
